Time;durP1;ratioP1;P1;durP2;ratioP2;P2;SDS_P1;SDS_P2;PMS_P1;PMS_P2;Temp;Humidity;BMP_temperature;BMP_pressure;BME280_temperature;BME280_humidity;BME280_pressure;Samples;Min_cycle;Max_cycle;Signal;HPM_P1;HPM_P2
2023/08/02 00:02:20;;;;;;;6.68;2.30;;;;;18.10;97573.00;;;;5100740;28;20103;-65
2023/08/02 00:04:46;;;;;;;5.30;2.22;;;;;18.10;97566.00;;;;5100565;28;20385;-64
2023/08/02 00:07:13;;;;;;;3.67;2.00;;;;;18.00;97564.00;;;;5099138;28;20044;-65
2023/08/02 00:09:40;;;;;;;6.30;2.85;;;;;18.00;97558.00;;;;5099904;28;20131;-64
2023/08/02 00:12:06;;;;;;;5.72;2.42;;;;;18.00;97555.00;;;;5099803;28;20123;-64
2023/08/02 00:14:33;;;;;;;5.00;2.00;;;;;18.00;97543.00;;;;5100066;28;20388;-64
2023/08/02 00:16:59;;;;;;;4.15;2.33;;;;;18.00;97529.00;;;;5100040;28;20435;-65
2023/08/02 00:19:26;;;;;;;5.60;2.22;;;;;18.00;97533.00;;;;5100547;28;20040;-64
2023/08/02 00:21:52;;;;;;;3.42;1.90;;;;;18.00;97531.00;;;;5098282;28;20127;-64
2023/08/02 00:24:19;;;;;;;4.90;1.92;;;;;17.90;97523.00;;;;5098955;28;20078;-64
2023/08/02 00:26:46;;;;;;;4.93;2.80;;;;;17.90;97540.00;;;;5099257;28;20407;-65
2023/08/02 00:29:13;;;;;;;4.28;2.38;;;;;17.90;97534.00;;;;5098993;28;20040;-64
2023/08/02 00:31:39;;;;;;;5.47;2.10;;;;;17.90;97544.00;;;;5098336;28;20511;-64
2023/08/02 00:34:07;;;;;;;3.83;2.03;;;;;17.90;97542.00;;;;5098253;28;20054;-64
2023/08/02 00:36:33;;;;;;;4.38;2.25;;;;;17.90;97546.00;;;;5098743;28;20492;-64
2023/08/02 00:39:00;;;;;;;4.47;2.00;;;;;17.80;97540.00;;;;5099455;28;20131;-65
2023/08/02 00:41:28;;;;;;;4.32;1.95;;;;;17.80;97532.00;;;;5098713;28;20050;-65
2023/08/02 00:43:55;;;;;;;5.45;2.00;;;;;17.80;97528.00;;;;5098823;28;20091;-64
2023/08/02 00:46:22;;;;;;;3.88;2.13;;;;;17.80;97522.00;;;;5096866;28;20404;-64
2023/08/02 00:48:48;;;;;;;4.70;2.25;;;;;17.80;97513.00;;;;5098858;28;20040;-64
2023/08/02 00:51:15;;;;;;;4.63;2.17;;;;;17.90;97511.00;;;;5097477;28;20076;-64
2023/08/02 00:53:43;;;;;;;3.92;2.13;;;;;17.90;97521.00;;;;5096939;28;20129;-64
2023/08/02 00:56:10;;;;;;;3.97;2.35;;;;;17.90;97518.00;;;;5080294;28;20052;-65
2023/08/02 00:58:37;;;;;;;5.53;2.83;;;;;18.00;97515.00;;;;5098385;28;20134;-64
2023/08/02 01:01:07;;;;;;;6.28;2.55;;;;;18.00;97510.00;;;;5097103;28;20050;-65
2023/08/02 01:03:35;;;;;;;6.38;2.97;;;;;17.90;97513.00;;;;5096909;28;20048;-64
2023/08/02 01:06:19;;;;;;;4.05;2.35;;;;;18.00;97519.00;;;;5098160;28;20083;-65
2023/08/02 01:08:52;;;;;;;4.18;2.10;;;;;18.00;97504.00;;;;5098237;28;20036;-65
2023/08/02 01:11:36;;;;;;;4.93;2.35;;;;;18.00;97517.00;;;;5097025;28;20043;-63
2023/08/02 01:14:05;;;;;;;4.53;2.22;;;;;18.00;97504.00;;;;5096635;28;20075;-64
2023/08/02 01:16:34;;;;;;;4.38;2.17;;;;;18.00;97512.00;;;;5097086;28;20109;-65
2023/08/02 01:19:00;;;;;;;4.68;2.35;;;;;18.00;97505.00;;;;5097346;28;20511;-64
2023/08/02 01:21:27;;;;;;;3.83;2.08;;;;;18.00;97496.00;;;;5096011;28;20086;-65
2023/08/02 01:23:54;;;;;;;3.45;2.28;;;;;18.00;97488.00;;;;5096262;28;20050;-64
2023/08/02 01:26:25;;;;;;;3.47;2.10;;;;;18.00;97486.00;;;;5094842;28;20463;-64
2023/08/02 01:28:55;;;;;;;2.83;1.95;;;;;18.00;97488.00;;;;5093187;28;20495;-64
2023/08/02 01:31:22;;;;;;;5.10;2.15;;;;;17.90;97490.00;;;;5093086;28;20065;-64
2023/08/02 01:33:53;;;;;;;6.57;2.25;;;;;18.00;97475.00;;;;5092735;28;20498;-64
2023/08/02 01:36:20;;;;;;;5.03;2.53;;;;;18.00;97472.00;;;;5093154;28;20095;-64
2023/08/02 01:38:46;;;;;;;7.40;2.65;;;;;18.00;97484.00;;;;5091786;28;20498;-64
2023/08/02 01:41:13;;;;;;;4.00;2.33;;;;;18.00;97482.00;;;;5091743;28;20439;-64
2023/08/02 01:43:40;;;;;;;3.53;2.15;;;;;18.00;97474.00;;;;5092973;28;20047;-64
2023/08/02 01:46:07;;;;;;;5.68;2.42;;;;;18.00;97471.00;;;;5074882;28;20544;-64
2023/08/02 01:48:33;;;;;;;3.92;2.20;;;;;18.00;97457.00;;;;5092670;28;20040;-64
2023/08/02 01:51:00;;;;;;;5.07;2.10;;;;;18.00;97442.00;;;;5074542;28;20089;-64
2023/08/02 01:53:27;;;;;;;7.28;2.30;;;;;18.00;97431.00;;;;5091554;28;20060;-62
2023/08/02 01:55:53;;;;;;;4.32;1.95;;;;;18.10;97423.00;;;;5092575;28;20456;-62
2023/08/02 01:58:20;;;;;;;4.90;2.20;;;;;18.10;97435.00;;;;5091525;28;20117;-62
2023/08/02 02:00:46;;;;;;;4.70;2.28;;;;;18.10;97430.00;;;;5074486;28;20040;-62
2023/08/02 02:03:13;;;;;;;3.70;2.20;;;;;18.20;97438.00;;;;5074427;28;20066;-62
2023/08/02 02:05:40;;;;;;;5.55;2.00;;;;;18.20;97425.00;;;;5090829;28;20044;-62
2023/08/02 02:08:06;;;;;;;7.18;2.47;;;;;18.10;97428.00;;;;5092656;28;20043;-62
2023/08/02 02:10:33;;;;;;;4.55;1.90;;;;;18.10;97418.00;;;;5091089;28;20068;-62
2023/08/02 02:12:59;;;;;;;7.03;2.20;;;;;18.20;97417.00;;;;5091227;28;20101;-62
2023/08/02 02:15:26;;;;;;;4.32;1.80;;;;;18.20;97407.00;;;;5092542;28;20042;-62
2023/08/02 02:17:53;;;;;;;4.18;2.17;;;;;18.20;97408.00;;;;5091203;28;20044;-62
2023/08/02 02:20:19;;;;;;;4.03;2.00;;;;;18.20;97401.00;;;;5090916;28;20052;-63
2023/08/02 02:22:46;;;;;;;3.60;1.90;;;;;18.30;97393.00;;;;5090984;28;20076;-63
2023/08/02 02:25:12;;;;;;;4.15;2.40;;;;;18.20;97389.00;;;;5092386;28;20485;-63
2023/08/02 02:27:39;;;;;;;3.15;1.80;;;;;18.20;97377.00;;;;5074235;28;20500;-63
2023/08/02 02:30:06;;;;;;;3.42;2.00;;;;;18.20;97374.00;;;;5091971;28;20523;-63
2023/08/02 02:32:33;;;;;;;5.30;2.13;;;;;18.20;97359.00;;;;5092195;28;20135;-63
2023/08/02 02:35:01;;;;;;;5.07;2.53;;;;;18.20;97356.00;;;;5074338;28;20615;-63
2023/08/02 02:37:27;;;;;;;4.82;2.20;;;;;18.20;97351.00;;;;5092099;28;20407;-64
2023/08/02 02:39:54;;;;;;;7.95;2.70;;;;;18.20;97360.00;;;;5091911;28;20127;-63
2023/08/02 02:42:21;;;;;;;4.90;2.58;;;;;18.20;97354.00;;;;5092053;28;20504;-63
2023/08/02 02:44:47;;;;;;;2.42;2.00;;;;;18.20;97348.00;;;;5090761;28;20079;-63
2023/08/02 02:47:14;;;;;;;4.63;2.42;;;;;18.20;97339.00;;;;5094583;28;20122;-63
2023/08/02 02:49:41;;;;;;;4.47;2.70;;;;;18.30;97342.00;;;;5096354;28;20442;-63
2023/08/02 02:52:09;;;;;;;5.03;2.50;;;;;18.30;97352.00;;;;5096268;28;20052;-63
2023/08/02 02:54:37;;;;;;;3.85;2.20;;;;;18.30;97341.00;;;;5094907;28;20134;-63
2023/08/02 02:57:04;;;;;;;4.32;2.33;;;;;18.30;97335.00;;;;5094751;28;20207;-63
2023/08/02 02:59:30;;;;;;;6.05;2.22;;;;;18.30;97333.00;;;;5096088;28;20382;-63
2023/08/02 03:01:57;;;;;;;4.10;2.28;;;;;18.30;97324.00;;;;5096006;28;20048;-63
2023/08/02 03:04:23;;;;;;;4.70;2.30;;;;;18.20;97314.00;;;;5095931;28;20050;-63
2023/08/02 03:06:51;;;;;;;5.05;2.00;;;;;18.20;97308.00;;;;5094890;28;20043;-63
2023/08/02 03:09:18;;;;;;;4.90;2.38;;;;;18.20;97295.00;;;;5077789;28;20072;-63
2023/08/02 03:11:45;;;;;;;3.83;2.53;;;;;18.20;97292.00;;;;5095747;28;20377;-62
2023/08/02 03:14:12;;;;;;;5.32;2.28;;;;;18.20;97285.00;;;;5095780;28;20050;-63
2023/08/02 03:16:42;;;;;;;3.28;2.30;;;;;18.30;97283.00;;;;5095907;28;20407;-63
2023/08/02 03:19:11;;;;;;;7.25;3.10;;;;;18.30;97294.00;;;;5095460;28;20044;-64
2023/08/02 03:21:38;;;;;;;6.88;2.63;;;;;18.30;97285.00;;;;5094463;28;20048;-64
2023/08/02 03:24:05;;;;;;;4.57;2.25;;;;;18.40;97286.00;;;;5094426;28;20098;-64
2023/08/02 03:26:32;;;;;;;4.72;2.25;;;;;18.40;97278.00;;;;5095635;28;20119;-62
2023/08/02 03:28:58;;;;;;;3.03;2.47;;;;;18.40;97281.00;;;;5094333;28;20083;-62
2023/08/02 03:31:25;;;;;;;5.40;2.90;;;;;18.40;97279.00;;;;5095349;28;20408;-62
2023/08/02 03:33:52;;;;;;;5.32;2.95;;;;;18.40;97271.00;;;;5095333;28;20448;-62
2023/08/02 03:36:19;;;;;;;5.20;2.95;;;;;18.40;97273.00;;;;5094217;28;20048;-62
2023/08/02 03:38:45;;;;;;;7.30;2.70;;;;;18.40;97280.00;;;;5095257;28;20047;-62
2023/08/02 03:41:12;;;;;;;6.47;2.58;;;;;18.40;97276.00;;;;5095255;28;20127;-62
2023/08/02 03:43:39;;;;;;;7.35;2.50;;;;;18.40;97279.00;;;;5094161;28;20075;-62
2023/08/02 03:46:05;;;;;;;5.57;2.83;;;;;18.40;97282.00;;;;5095377;28;20044;-62
2023/08/02 03:48:32;;;;;;;5.07;2.90;;;;;18.40;97265.00;;;;5095201;28;20044;-62
2023/08/02 03:50:59;;;;;;;5.80;3.03;;;;;18.40;97266.00;;;;5095058;28;20118;-62
2023/08/02 03:53:26;;;;;;;4.53;2.78;;;;;18.30;97261.00;;;;5094970;28;20044;-62
2023/08/02 03:55:53;;;;;;;4.95;2.88;;;;;18.40;97253.00;;;;5094907;28;20121;-62
2023/08/02 03:58:20;;;;;;;5.80;3.53;;;;;18.40;97257.00;;;;5094660;28;20424;-62
2023/08/02 04:00:47;;;;;;;5.00;2.78;;;;;18.40;97257.00;;;;5094749;28;20131;-62
2023/08/02 04:03:13;;;;;;;4.65;3.22;;;;;18.40;97249.00;;;;5094787;28;20127;-62
2023/08/02 04:05:40;;;;;;;3.38;2.38;;;;;18.40;97242.00;;;;5093693;28;20056;-62
2023/08/02 04:08:07;;;;;;;4.78;2.70;;;;;18.40;97235.00;;;;5094872;28;20571;-63
2023/08/02 04:10:39;;;;;;;6.43;2.95;;;;;18.40;97240.00;;;;5094632;28;20054;-62
2023/08/02 04:13:06;;;;;;;6.55;3.17;;;;;18.40;97244.00;;;;5094881;28;20530;-63
2023/08/02 04:15:34;;;;;;;4.30;2.80;;;;;18.40;97242.00;;;;5094801;28;20440;-63
2023/08/02 04:18:01;;;;;;;3.85;2.45;;;;;18.40;97235.00;;;;5094574;28;20133;-63
2023/08/02 04:20:28;;;;;;;4.90;3.17;;;;;18.30;97232.00;;;;5094339;28;20427;-62
2023/08/02 04:22:55;;;;;;;4.22;2.33;;;;;18.30;97232.00;;;;5094576;28;20446;-63
2023/08/02 04:25:22;;;;;;;5.85;3.13;;;;;18.30;97231.00;;;;5094555;28;20055;-63
2023/08/02 04:27:49;;;;;;;5.13;2.72;;;;;18.30;97227.00;;;;5094587;28;20081;-62
2023/08/02 04:30:16;;;;;;;5.88;2.67;;;;;18.30;97228.00;;;;5094345;28;20052;-63
2023/08/02 04:32:42;;;;;;;3.60;2.17;;;;;18.30;97235.00;;;;5093202;28;20066;-63
2023/08/02 04:35:09;;;;;;;5.97;2.42;;;;;18.20;97224.00;;;;5094200;28;20400;-63
2023/08/02 04:37:36;;;;;;;3.35;2.55;;;;;18.20;97223.00;;;;5094201;28;20040;-63
2023/08/02 04:40:02;;;;;;;3.95;2.13;;;;;18.20;97221.00;;;;5094063;28;20404;-63
2023/08/02 04:42:29;;;;;;;3.20;2.13;;;;;18.10;97229.00;;;;5094001;28;20054;-64
2023/08/02 04:44:56;;;;;;;4.35;2.65;;;;;18.10;97215.00;;;;5093033;28;20441;-64
2023/08/02 04:47:22;;;;;;;7.18;3.10;;;;;18.10;97210.00;;;;5094055;28;20039;-63
2023/08/02 04:49:49;;;;;;;4.47;2.50;;;;;18.10;97207.00;;;;5093756;28;20109;-63
2023/08/02 04:52:15;;;;;;;3.83;2.58;;;;;18.00;97208.00;;;;5093877;28;20097;-63
2023/08/02 04:54:42;;;;;;;5.40;3.10;;;;;18.00;97198.00;;;;5093880;28;20127;-63
2023/08/02 04:57:08;;;;;;;5.18;2.80;;;;;18.00;97191.00;;;;5093822;28;20048;-64
2023/08/02 04:59:35;;;;;;;4.05;2.30;;;;;18.00;97188.00;;;;5093545;28;20048;-63
2023/08/02 05:02:01;;;;;;;3.10;2.28;;;;;18.00;97183.00;;;;5093725;28;20046;-62
2023/08/02 05:04:28;;;;;;;2.92;2.60;;;;;17.90;97174.00;;;;5093728;28;20123;-63
2023/08/02 05:06:55;;;;;;;5.05;3.10;;;;;17.90;97178.00;;;;5093738;28;20051;-63
2023/08/02 05:09:22;;;;;;;4.60;2.97;;;;;17.90;97177.00;;;;5091456;28;20055;-64
2023/08/02 05:11:48;;;;;;;3.95;3.00;;;;;18.00;97169.00;;;;5093509;28;20048;-63
2023/08/02 05:14:15;;;;;;;5.00;3.10;;;;;18.00;97164.00;;;;5093473;28;20040;-63
2023/08/02 05:16:42;;;;;;;4.78;3.10;;;;;18.00;97170.00;;;;5092274;28;20065;-63
2023/08/02 05:19:09;;;;;;;2.15;1.92;;;;;18.00;97167.00;;;;5093144;28;20040;-63
2023/08/02 05:21:35;;;;;;;3.72;2.50;;;;;18.00;97164.00;;;;5092135;28;20048;-63
2023/08/02 05:24:02;;;;;;;3.80;2.22;;;;;18.00;97159.00;;;;5092028;28;20044;-63
2023/08/02 05:26:29;;;;;;;3.08;2.28;;;;;18.00;97160.00;;;;5093384;28;20036;-63
2023/08/02 05:28:55;;;;;;;3.22;2.35;;;;;18.10;97155.00;;;;5093599;28;20437;-63
2023/08/02 05:31:22;;;;;;;4.15;2.63;;;;;18.10;97151.00;;;;5092991;28;20040;-63
2023/08/02 05:33:48;;;;;;;2.58;2.30;;;;;18.10;97148.00;;;;5093060;28;20075;-63
2023/08/02 05:36:15;;;;;;;2.90;2.05;;;;;18.10;97156.00;;;;5093157;28;20044;-62
2023/08/02 05:38:42;;;;;;;3.50;2.78;;;;;18.20;97154.00;;;;5091808;28;20043;-63
2023/08/02 05:41:09;;;;;;;4.22;2.47;;;;;18.20;97145.00;;;;5092856;28;20127;-63
2023/08/02 05:43:36;;;;;;;2.63;2.17;;;;;18.10;97142.00;;;;5092934;28;20055;-63
2023/08/02 05:46:03;;;;;;;3.95;2.80;;;;;18.20;97125.00;;;;5092899;28;20102;-63
2023/08/02 05:48:30;;;;;;;3.92;2.80;;;;;18.10;97117.00;;;;5091780;28;20085;-63
2023/08/02 05:50:57;;;;;;;3.58;3.17;;;;;18.00;97102.00;;;;5092658;28;20063;-63
2023/08/02 05:53:23;;;;;;;4.20;2.38;;;;;18.10;97102.00;;;;5092803;28;20117;-63
2023/08/02 05:55:50;;;;;;;2.22;1.95;;;;;18.10;97095.00;;;;5092769;28;20056;-62
2023/08/02 05:58:17;;;;;;;3.35;2.50;;;;;18.10;97084.00;;;;5094259;28;20488;-63
2023/08/02 06:00:43;;;;;;;2.55;1.45;;;;;18.10;97077.00;;;;5094114;28;20122;-63
2023/08/02 06:03:10;;;;;;;1.95;1.60;;;;;18.10;97083.00;;;;5094354;28;20084;-63
2023/08/02 06:05:36;;;;;;;5.28;2.67;;;;;18.00;97077.00;;;;5094467;28;20048;-63
2023/08/02 06:08:03;;;;;;;2.78;1.48;;;;;18.10;97073.00;;;;5094144;28;20117;-63
2023/08/02 06:10:30;;;;;;;3.28;2.72;;;;;18.10;97071.00;;;;5094217;28;20044;-62
2023/08/02 06:12:57;;;;;;;4.05;2.97;;;;;18.20;97064.00;;;;5094389;28;20177;-63
2023/08/02 06:15:24;;;;;;;2.35;2.03;;;;;18.30;97058.00;;;;5094551;28;20109;-63
2023/08/02 06:17:51;;;;;;;2.22;1.52;;;;;18.30;97050.00;;;;5093198;28;20040;-63
2023/08/02 06:20:17;;;;;;;2.65;2.25;;;;;18.30;97045.00;;;;5093973;28;20040;-63
2023/08/02 06:22:44;;;;;;;2.55;1.70;;;;;18.40;97042.00;;;;5094159;28;20131;-63
2023/08/02 06:25:10;;;;;;;2.65;1.52;;;;;18.40;97028.00;;;;5093755;28;20520;-63
2023/08/02 06:27:37;;;;;;;2.08;1.85;;;;;18.40;97025.00;;;;5094110;28;20122;-63
2023/08/02 06:30:04;;;;;;;1.60;1.20;;;;;18.40;97015.00;;;;5093508;28;20051;-63
2023/08/02 06:32:31;;;;;;;2.25;1.60;;;;;18.50;97008.00;;;;5093697;28;20044;-63
2023/08/02 06:34:57;;;;;;;2.17;1.20;;;;;18.50;97008.00;;;;5094264;28;20107;-63
2023/08/02 06:37:24;;;;;;;1.50;1.13;;;;;18.60;96991.00;;;;5092238;28;20088;-63
2023/08/02 06:39:50;;;;;;;3.05;1.85;;;;;18.60;96976.00;;;;5093188;28;20047;-63
2023/08/02 06:42:17;;;;;;;2.53;1.90;;;;;18.60;96978.00;;;;5092542;28;20054;-62
2023/08/02 06:44:44;;;;;;;1.83;1.20;;;;;18.70;96974.00;;;;5094911;28;20573;-62
2023/08/02 06:47:10;;;;;;;1.40;0.90;;;;;18.80;96970.00;;;;5092427;28;20067;-62
2023/08/02 06:49:37;;;;;;;1.00;0.80;;;;;18.70;96971.00;;;;5092693;28;20036;-63
2023/08/02 06:52:04;;;;;;;1.20;1.10;;;;;18.70;96963.00;;;;5093918;28;20114;-63
2023/08/02 06:54:31;;;;;;;1.25;0.82;;;;;18.80;96975.00;;;;5094614;28;20040;-64
2023/08/02 06:56:57;;;;;;;0.80;0.75;;;;;18.80;96955.00;;;;5095095;28;20131;-64
2023/08/02 06:59:24;;;;;;;0.90;0.80;;;;;18.90;96952.00;;;;5105977;28;20044;-64
2023/08/02 07:01:52;;;;;;;1.80;1.25;;;;;19.00;96953.00;;;;5114020;28;20528;-64
2023/08/02 07:04:19;;;;;;;0.70;0.70;;;;;19.00;96942.00;;;;5112842;28;20050;-64
2023/08/02 07:06:45;;;;;;;2.95;1.55;;;;;19.00;96936.00;;;;5113636;28;20044;-64
2023/08/02 07:09:14;;;;;;;1.63;1.30;;;;;19.10;96921.00;;;;5113046;28;20043;-63
2023/08/02 07:11:40;;;;;;;0.90;0.70;;;;;19.20;96918.00;;;;5113360;28;20543;-64
2023/08/02 07:14:07;;;;;;;1.23;0.95;;;;;19.20;96929.00;;;;5112777;28;20485;-64
2023/08/02 07:16:33;;;;;;;1.88;0.75;;;;;19.30;96923.00;;;;5112909;28;20229;-64
2023/08/02 07:19:02;;;;;;;0.95;0.65;;;;;19.30;96927.00;;;;5112437;28;20040;-64
2023/08/02 07:21:30;;;;;;;1.00;0.63;;;;;19.30;96929.00;;;;5111987;28;20047;-64
2023/08/02 07:23:56;;;;;;;1.77;0.85;;;;;19.30;96910.00;;;;5112099;28;20071;-64
2023/08/02 07:26:23;;;;;;;1.05;0.95;;;;;19.30;96914.00;;;;5112173;28;20044;-64
2023/08/02 07:28:49;;;;;;;1.33;0.63;;;;;19.20;96911.00;;;;5111155;28;20128;-64
2023/08/02 07:31:16;;;;;;;0.70;0.50;;;;;19.10;96902.00;;;;5112087;28;20082;-64
2023/08/02 07:33:45;;;;;;;0.60;0.60;;;;;19.10;96903.00;;;;5115203;28;20054;-64
2023/08/02 07:36:19;;;;;;;2.90;0.70;;;;;19.10;96896.00;;;;5116071;27;20047;-64
2023/08/02 07:38:46;;;;;;;0.47;0.47;;;;;19.20;96890.00;;;;5116004;28;20101;-63
2023/08/02 07:41:13;;;;;;;0.98;0.40;;;;;19.30;96878.00;;;;5115589;28;20043;-63
2023/08/02 07:43:40;;;;;;;0.60;0.50;;;;;19.50;96859.00;;;;5114696;28;20043;-64
2023/08/02 07:46:16;;;;;;;0.47;0.45;;;;;19.70;96866.00;;;;5115826;28;20048;-63
2023/08/02 07:48:42;;;;;;;0.45;0.30;;;;;19.80;96862.00;;;;5114345;28;20504;-62
2023/08/02 07:51:09;;;;;;;0.98;0.88;;;;;20.00;96848.00;;;;5115468;28;20058;-62
2023/08/02 07:53:35;;;;;;;0.70;0.40;;;;;20.20;96853.00;;;;5115633;28;20039;-63
2023/08/02 07:56:04;;;;;;;0.30;0.30;;;;;20.20;96859.00;;;;5115303;28;20126;-63
2023/08/02 07:58:30;;;;;;;0.50;0.50;;;;;20.10;96871.00;;;;5115752;28;20481;-63
2023/08/02 08:01:04;;;;;;;1.08;0.40;;;;;19.90;96882.00;;;;5115324;27;20050;-63
2023/08/02 08:03:30;;;;;;;0.50;0.40;;;;;19.80;96871.00;;;;5115829;28;20097;-63
2023/08/02 08:05:57;;;;;;;0.50;0.50;;;;;19.70;96871.00;;;;5115640;28;20043;-62
2023/08/02 08:08:23;;;;;;;4.13;0.60;;;;;19.70;96871.00;;;;5115366;28;20140;-62
2023/08/02 08:10:51;;;;;;;1.10;0.47;;;;;19.70;96876.00;;;;5115042;28;20506;-62
2023/08/02 08:13:18;;;;;;;0.40;0.40;;;;;19.70;96867.00;;;;5115218;28;20040;-62
2023/08/02 08:15:46;;;;;;;0.63;0.40;;;;;19.70;96851.00;;;;5115116;28;20056;-62
2023/08/02 08:18:12;;;;;;;0.50;0.38;;;;;19.70;96855.00;;;;5115150;28;20047;-61
2023/08/02 08:20:39;;;;;;;1.33;0.50;;;;;19.70;96857.00;;;;5114877;28;20042;-61
2023/08/02 08:23:05;;;;;;;1.38;0.40;;;;;19.80;96844.00;;;;5114849;28;20402;-61
2023/08/02 08:25:32;;;;;;;0.75;0.40;;;;;19.80;96834.00;;;;5114850;28;20039;-61
2023/08/02 08:27:58;;;;;;;0.50;0.47;;;;;19.90;96834.00;;;;5114884;28;20118;-61
2023/08/02 08:30:25;;;;;;;0.38;0.38;;;;;19.80;96848.00;;;;5114604;28;20118;-61
2023/08/02 08:32:51;;;;;;;0.30;0.30;;;;;19.70;96843.00;;;;5114919;28;20062;-61
2023/08/02 08:35:18;;;;;;;0.35;0.35;;;;;19.80;96829.00;;;;5114736;28;20047;-61
2023/08/02 08:37:48;;;;;;;0.40;0.40;;;;;19.80;96827.00;;;;5115166;28;20122;-60
2023/08/02 08:40:17;;;;;;;0.43;0.30;;;;;19.90;96827.00;;;;5114972;28;20043;-61
2023/08/02 08:42:51;;;;;;;0.28;0.28;;;;;19.90;96829.00;;;;5113221;28;20075;-61
2023/08/02 08:45:20;;;;;;;0.50;0.50;;;;;19.90;96811.00;;;;5112651;28;20695;-62
2023/08/02 08:47:47;;;;;;;0.55;0.55;;;;;20.00;96815.00;;;;5114527;27;20044;-62
2023/08/02 08:50:14;;;;;;;0.77;0.50;;;;;20.00;96815.00;;;;5114294;28;20441;-62
2023/08/02 08:52:45;;;;;;;0.95;0.47;;;;;20.00;96804.00;;;;5114400;28;20047;-62
2023/08/02 08:55:14;;;;;;;0.40;0.40;;;;;20.10;96805.00;;;;5114350;28;20047;-62
2023/08/02 08:57:41;;;;;;;0.40;0.40;;;;;20.10;96798.00;;;;5114129;28;20070;-62
2023/08/02 09:00:09;;;;;;;1.02;0.63;;;;;20.10;96797.00;;;;5113790;28;20472;-62
2023/08/02 09:02:39;;;;;;;0.82;0.60;;;;;19.90;96793.00;;;;5114127;28;20230;-62
2023/08/02 09:05:07;;;;;;;0.40;0.40;;;;;19.80;96795.00;;;;5114439;28;20046;-62
2023/08/02 09:07:34;;;;;;;2.28;0.60;;;;;19.90;96792.00;;;;5114026;28;20134;-62
2023/08/02 09:10:01;;;;;;;2.67;0.73;;;;;20.00;96787.00;;;;5113706;28;20488;-62
2023/08/02 09:12:29;;;;;;;0.60;0.55;;;;;20.00;96786.00;;;;5113836;28;20090;-62
2023/08/02 09:15:01;;;;;;;0.95;0.50;;;;;20.00;96786.00;;;;5114105;28;20047;-62
2023/08/02 09:17:27;;;;;;;1.02;0.65;;;;;19.90;96781.00;;;;5113897;28;20400;-62
2023/08/02 09:20:09;;;;;;;0.90;0.60;;;;;19.90;96780.00;;;;5113603;28;20523;-62
2023/08/02 09:22:36;;;;;;;2.72;0.70;;;;;19.80;96776.00;;;;5113579;28;20130;-62
2023/08/02 09:25:07;;;;;;;1.48;0.88;;;;;19.80;96775.00;;;;5113672;28;20136;-63
2023/08/02 09:27:34;;;;;;;2.65;1.20;;;;;19.80;96780.00;;;;5113812;28;20075;-62
2023/08/02 09:30:00;;;;;;;1.38;0.88;;;;;19.80;96770.00;;;;5113488;28;20480;-62
2023/08/02 09:32:27;;;;;;;1.40;1.00;;;;;19.90;96761.00;;;;5113549;28;20051;-62
2023/08/02 09:34:57;;;;;;;2.47;1.20;;;;;19.90;96772.00;;;;5112872;28;20100;-62
2023/08/02 09:37:32;;;;;;;0.85;0.85;;;;;19.90;96770.00;;;;5114800;28;20051;-62
2023/08/02 09:39:59;;;;;;;2.00;1.05;;;;;19.90;96760.00;;;;5113487;27;20039;-61
2023/08/02 09:42:27;;;;;;;2.13;1.20;;;;;19.80;96754.00;;;;5112264;28;20444;-62
2023/08/02 09:44:59;;;;;;;2.28;1.30;;;;;19.90;96754.00;;;;5113577;28;20074;-63
2023/08/02 09:47:26;;;;;;;1.42;0.90;;;;;19.90;96749.00;;;;5113447;28;20051;-62
2023/08/02 09:50:11;;;;;;;2.03;0.93;;;;;19.90;96754.00;;;;5113042;28;20044;-62
2023/08/02 09:52:39;;;;;;;1.40;1.00;;;;;19.90;96748.00;;;;5113313;28;20047;-62
2023/08/02 09:55:07;;;;;;;1.63;1.30;;;;;20.00;96748.00;;;;5113001;28;20055;-62
2023/08/02 09:57:34;;;;;;;1.45;1.20;;;;;20.00;96749.00;;;;5113087;28;20051;-62
2023/08/02 10:00:04;;;;;;;1.98;1.20;;;;;20.00;96745.00;;;;5112775;28;20043;-62
2023/08/02 10:02:37;;;;;;;1.45;1.13;;;;;20.20;96736.00;;;;5113636;27;20579;-61
2023/08/02 10:05:15;;;;;;;2.25;1.40;;;;;20.10;96732.00;;;;5113574;28;20051;-61
2023/08/02 10:07:50;;;;;;;2.22;1.38;;;;;20.10;96732.00;;;;5113573;28;20316;-60
2023/08/02 10:10:22;;;;;;;1.77;1.30;;;;;20.10;96723.00;;;;5112195;28;20480;-60
2023/08/02 10:12:55;;;;;;;3.22;1.48;;;;;20.10;96721.00;;;;5112843;28;20044;-61
2023/08/02 10:15:22;;;;;;;2.42;1.67;;;;;20.10;96726.00;;;;5113028;28;20141;-60
2023/08/02 10:17:49;;;;;;;4.55;1.88;;;;;20.00;96728.00;;;;5113031;28;20131;-60
2023/08/02 10:20:16;;;;;;;1.70;1.60;;;;;19.90;96717.00;;;;5111131;28;20047;-60
2023/08/02 10:22:44;;;;;;;2.55;1.70;;;;;19.90;96709.00;;;;5112716;28;20492;-60
2023/08/02 10:25:13;;;;;;;2.88;1.75;;;;;20.00;96708.00;;;;5112900;28;20111;-60
2023/08/02 10:27:40;;;;;;;2.88;1.80;;;;;20.10;96712.00;;;;5111375;28;20130;-61
2023/08/02 10:30:08;;;;;;;1.55;1.42;;;;;20.30;96701.00;;;;5112426;28;20038;-61
2023/08/02 10:32:35;;;;;;;3.05;1.75;;;;;20.50;96711.00;;;;5112725;28;20082;-62
2023/08/02 10:35:02;;;;;;;2.20;1.95;;;;;20.60;96710.00;;;;5112583;28;20043;-62
2023/08/02 10:37:58;;;;;;;2.42;2.08;;;;;20.80;96698.00;;;;5112613;28;20040;-61
2023/08/02 10:41:07;;;;;;;2.17;1.98;;;;;20.80;96708.00;;;;5099155;28;20060;-61
2023/08/02 10:43:54;;;;;;;4.60;2.25;;;;;20.70;96708.00;;;;5112546;28;20058;-61
2023/08/02 10:46:26;;;;;;;2.47;2.28;;;;;20.70;96712.00;;;;5112504;28;20100;-61
2023/08/02 10:48:55;;;;;;;2.95;2.22;;;;;20.70;96713.00;;;;5111365;28;20054;-61
2023/08/02 10:51:37;;;;;;;2.17;1.88;;;;;20.70;96717.00;;;;5110980;28;20039;-61
2023/08/02 10:54:23;;;;;;;2.13;1.92;;;;;20.70;96691.00;;;;5112512;28;20114;-61
2023/08/02 10:56:53;;;;;;;2.35;1.80;;;;;20.70;96709.00;;;;5112182;28;20051;-61
2023/08/02 10:59:23;;;;;;;2.72;2.05;;;;;20.60;96707.00;;;;5111995;28;20054;-61
2023/08/02 11:02:01;;;;;;;2.65;2.30;;;;;20.70;96707.00;;;;5112330;28;20044;-61
2023/08/02 11:04:30;;;;;;;2.63;2.20;;;;;20.60;96684.00;;;;5112285;28;20042;-60
2023/08/02 11:07:12;;;;;;;2.65;2.22;;;;;20.70;96702.00;;;;5111859;28;20043;-62
2023/08/02 11:09:40;;;;;;;2.97;2.25;;;;;20.70;96697.00;;;;5116708;28;20082;-63
2023/08/02 11:12:15;;;;;;;2.67;2.42;;;;;20.80;96687.00;;;;5116292;28;20048;-63
2023/08/02 11:14:44;;;;;;;2.53;2.22;;;;;20.90;96680.00;;;;5116553;28;20114;-62
2023/08/02 11:17:17;;;;;;;2.72;2.20;;;;;21.20;96678.00;;;;5117726;28;20499;-62
2023/08/02 11:19:57;;;;;;;3.38;2.67;;;;;21.20;96683.00;;;;5116766;28;20549;-62
2023/08/02 11:22:35;;;;;;;4.20;2.38;;;;;21.10;96684.00;;;;5117240;28;20035;-62
2023/08/02 11:25:03;;;;;;;2.72;2.30;;;;;21.10;96680.00;;;;5117042;28;20122;-62
2023/08/02 11:27:29;;;;;;;5.78;2.50;;;;;21.30;96691.00;;;;5116227;28;20040;-62
2023/08/02 11:30:06;;;;;;;6.68;2.50;;;;;21.30;96674.00;;;;5116003;28;20043;-62
2023/08/02 11:32:41;;;;;;;3.72;2.40;;;;;21.50;96683.00;;;;5116406;28;20040;-62
2023/08/02 11:35:08;;;;;;;2.50;2.30;;;;;21.60;96681.00;;;;5116751;28;20048;-63
2023/08/02 11:37:38;;;;;;;4.15;2.72;;;;;21.70;96692.00;;;;5117366;28;20048;-60
2023/08/02 11:40:05;;;;;;;2.97;2.20;;;;;21.90;96677.00;;;;5116063;28;20058;-60
2023/08/02 11:42:53;;;;;;;2.78;1.98;;;;;22.00;96679.00;;;;5116563;28;20036;-60
2023/08/02 11:45:27;;;;;;;2.03;1.83;;;;;22.10;96699.00;;;;5115592;28;20051;-60
2023/08/02 11:47:54;;;;;;;3.50;2.30;;;;;22.10;96683.00;;;;5116721;28;20058;-60
2023/08/02 11:50:35;;;;;;;2.58;1.90;;;;;22.20;96680.00;;;;5115858;28;20054;-60
2023/08/02 11:53:07;;;;;;;3.00;2.63;;;;;22.40;96665.00;;;;5116742;28;20050;-60
2023/08/02 11:55:38;;;;;;;3.55;2.08;;;;;22.60;96673.00;;;;5117706;28;20078;-60
2023/08/02 11:58:06;;;;;;;3.50;2.10;;;;;22.70;96675.00;;;;5116905;28;20047;-60
2023/08/02 12:00:34;;;;;;;3.08;2.20;;;;;22.50;96690.00;;;;5117978;28;20040;-60
2023/08/02 12:03:16;;;;;;;2.50;1.90;;;;;22.30;96690.00;;;;5116183;28;20043;-60
2023/08/02 12:05:44;;;;;;;1.77;1.50;;;;;21.90;96692.00;;;;5116286;28;20063;-60
2023/08/02 12:08:17;;;;;;;2.83;1.60;;;;;21.70;96683.00;;;;5116295;28;20118;-60
2023/08/02 12:10:44;;;;;;;1.75;1.65;;;;;21.60;96672.00;;;;5115761;28;20563;-60
2023/08/02 12:13:14;;;;;;;1.60;1.42;;;;;21.50;96669.00;;;;5114522;28;20094;-61
2023/08/02 12:15:55;;;;;;;1.90;1.75;;;;;21.40;96651.00;;;;5115665;28;20052;-61
2023/08/02 12:18:22;;;;;;;1.58;1.48;;;;;21.50;96649.00;;;;5115423;28;20051;-61
2023/08/02 12:20:48;;;;;;;2.28;1.73;;;;;21.60;96637.00;;;;5115105;28;20047;-61
2023/08/02 12:23:34;;;;;;;2.75;1.88;;;;;21.80;96624.00;;;;5115694;28;20050;-60
2023/08/02 12:26:01;;;;;;;3.08;1.70;;;;;21.70;96622.00;;;;5115162;28;20043;-61